sensor_id;sensor_type;location;lat;lon;timestamp;P1;durP1;ratioP1;P2;durP2;ratioP2
15878;SDS011;61999;51.514;14.614;2023-07-31T00:02:14;3.90;;;2.67;;
15878;SDS011;61999;51.514;14.614;2023-07-31T00:04:42;3.70;;;2.63;;
15878;SDS011;61999;51.514;14.614;2023-07-31T00:07:11;3.33;;;2.90;;
15878;SDS011;61999;51.514;14.614;2023-07-31T00:09:39;3.17;;;2.87;;
15878;SDS011;61999;51.514;14.614;2023-07-31T00:12:07;2.80;;;2.60;;
15878;SDS011;61999;51.514;14.614;2023-07-31T00:14:35;2.70;;;2.50;;
15878;SDS011;61999;51.514;14.614;2023-07-31T00:17:03;2.67;;;2.47;;
15878;SDS011;61999;51.514;14.614;2023-07-31T00:19:32;2.90;;;2.70;;
15878;SDS011;61999;51.514;14.614;2023-07-31T00:22:00;3.33;;;2.83;;
15878;SDS011;61999;51.514;14.614;2023-07-31T00:24:29;5.07;;;2.57;;
15878;SDS011;61999;51.514;14.614;2023-07-31T00:26:57;3.80;;;2.90;;
15878;SDS011;61999;51.514;14.614;2023-07-31T00:29:25;3.13;;;2.60;;
15878;SDS011;61999;51.514;14.614;2023-07-31T00:31:53;2.97;;;2.70;;
15878;SDS011;61999;51.514;14.614;2023-07-31T00:34:21;3.67;;;3.10;;
15878;SDS011;61999;51.514;14.614;2023-07-31T00:36:49;4.60;;;2.73;;
15878;SDS011;61999;51.514;14.614;2023-07-31T00:39:17;2.90;;;2.40;;
15878;SDS011;61999;51.514;14.614;2023-07-31T00:41:46;2.90;;;2.63;;
15878;SDS011;61999;51.514;14.614;2023-07-31T00:44:14;4.00;;;2.70;;
15878;SDS011;61999;51.514;14.614;2023-07-31T00:46:42;3.50;;;3.07;;
15878;SDS011;61999;51.514;14.614;2023-07-31T00:49:11;4.73;;;2.70;;
15878;SDS011;61999;51.514;14.614;2023-07-31T00:51:40;5.47;;;2.93;;
15878;SDS011;61999;51.514;14.614;2023-07-31T00:54:08;2.73;;;2.40;;
15878;SDS011;61999;51.514;14.614;2023-07-31T00:56:36;3.47;;;2.50;;
15878;SDS011;61999;51.514;14.614;2023-07-31T00:59:08;2.47;;;2.27;;
15878;SDS011;61999;51.514;14.614;2023-07-31T01:01:37;5.47;;;2.80;;
15878;SDS011;61999;51.514;14.614;2023-07-31T01:04:05;3.73;;;2.87;;
15878;SDS011;61999;51.514;14.614;2023-07-31T01:06:35;3.27;;;2.60;;
15878;SDS011;61999;51.514;14.614;2023-07-31T01:09:13;4.07;;;2.80;;
15878;SDS011;61999;51.514;14.614;2023-07-31T01:11:56;4.43;;;2.47;;
15878;SDS011;61999;51.514;14.614;2023-07-31T01:14:30;3.03;;;2.50;;
15878;SDS011;61999;51.514;14.614;2023-07-31T01:16:58;5.27;;;2.67;;
15878;SDS011;61999;51.514;14.614;2023-07-31T01:19:26;3.13;;;2.77;;
15878;SDS011;61999;51.514;14.614;2023-07-31T01:22:01;3.30;;;2.53;;
15878;SDS011;61999;51.514;14.614;2023-07-31T01:25:00;4.17;;;2.50;;
15878;SDS011;61999;51.514;14.614;2023-07-31T01:27:50;4.53;;;2.70;;
15878;SDS011;61999;51.514;14.614;2023-07-31T01:30:27;3.07;;;2.10;;
15878;SDS011;61999;51.514;14.614;2023-07-31T01:33:02;2.50;;;2.30;;
15878;SDS011;61999;51.514;14.614;2023-07-31T01:35:33;3.00;;;2.50;;
15878;SDS011;61999;51.514;14.614;2023-07-31T01:38:01;3.57;;;2.10;;
15878;SDS011;61999;51.514;14.614;2023-07-31T01:40:29;2.00;;;1.90;;
15878;SDS011;61999;51.514;14.614;2023-07-31T01:42:59;2.57;;;2.00;;
15878;SDS011;61999;51.514;14.614;2023-07-31T01:45:27;3.13;;;2.40;;
15878;SDS011;61999;51.514;14.614;2023-07-31T01:47:55;3.90;;;2.40;;
15878;SDS011;61999;51.514;14.614;2023-07-31T01:50:22;3.03;;;2.07;;
15878;SDS011;61999;51.514;14.614;2023-07-31T01:52:50;3.30;;;2.43;;
15878;SDS011;61999;51.514;14.614;2023-07-31T01:55:18;2.80;;;1.80;;
15878;SDS011;61999;51.514;14.614;2023-07-31T01:57:46;2.30;;;2.10;;
15878;SDS011;61999;51.514;14.614;2023-07-31T02:00:16;2.73;;;2.20;;
15878;SDS011;61999;51.514;14.614;2023-07-31T02:02:44;3.00;;;2.00;;
15878;SDS011;61999;51.514;14.614;2023-07-31T02:05:12;4.30;;;2.03;;
15878;SDS011;61999;51.514;14.614;2023-07-31T02:07:40;3.33;;;2.20;;
15878;SDS011;61999;51.514;14.614;2023-07-31T02:10:08;3.60;;;2.20;;
15878;SDS011;61999;51.514;14.614;2023-07-31T02:12:36;3.80;;;2.37;;
15878;SDS011;61999;51.514;14.614;2023-07-31T02:15:04;2.63;;;1.93;;
15878;SDS011;61999;51.514;14.614;2023-07-31T02:17:35;2.63;;;2.10;;
15878;SDS011;61999;51.514;14.614;2023-07-31T02:20:03;2.33;;;2.13;;
15878;SDS011;61999;51.514;14.614;2023-07-31T02:22:32;4.03;;;2.10;;
15878;SDS011;61999;51.514;14.614;2023-07-31T02:25:00;2.70;;;1.80;;
15878;SDS011;61999;51.514;14.614;2023-07-31T02:27:28;3.67;;;2.50;;
15878;SDS011;61999;51.514;14.614;2023-07-31T02:29:56;3.70;;;2.27;;
15878;SDS011;61999;51.514;14.614;2023-07-31T02:32:25;2.60;;;1.90;;
15878;SDS011;61999;51.514;14.614;2023-07-31T02:34:54;3.27;;;1.90;;
15878;SDS011;61999;51.514;14.614;2023-07-31T02:37:22;4.17;;;2.10;;
15878;SDS011;61999;51.514;14.614;2023-07-31T02:39:50;2.13;;;1.87;;
15878;SDS011;61999;51.514;14.614;2023-07-31T02:42:18;3.63;;;2.30;;
15878;SDS011;61999;51.514;14.614;2023-07-31T02:44:46;2.70;;;1.80;;
15878;SDS011;61999;51.514;14.614;2023-07-31T02:47:14;3.77;;;1.93;;
15878;SDS011;61999;51.514;14.614;2023-07-31T02:49:42;2.67;;;2.10;;
15878;SDS011;61999;51.514;14.614;2023-07-31T02:52:12;2.33;;;1.73;;
15878;SDS011;61999;51.514;14.614;2023-07-31T02:54:39;3.53;;;1.93;;
15878;SDS011;61999;51.514;14.614;2023-07-31T02:57:07;2.73;;;2.00;;
15878;SDS011;61999;51.514;14.614;2023-07-31T02:59:35;3.03;;;1.70;;
15878;SDS011;61999;51.514;14.614;2023-07-31T03:02:03;1.83;;;1.73;;
15878;SDS011;61999;51.514;14.614;2023-07-31T03:04:31;1.50;;;1.40;;
15878;SDS011;61999;51.514;14.614;2023-07-31T03:06:59;5.37;;;1.90;;
15878;SDS011;61999;51.514;14.614;2023-07-31T03:09:28;2.10;;;1.90;;
15878;SDS011;61999;51.514;14.614;2023-07-31T03:11:56;1.97;;;1.77;;
15878;SDS011;61999;51.514;14.614;2023-07-31T03:14:24;3.50;;;1.80;;
15878;SDS011;61999;51.514;14.614;2023-07-31T03:16:53;3.63;;;2.10;;
15878;SDS011;61999;51.514;14.614;2023-07-31T03:19:21;2.63;;;1.73;;
15878;SDS011;61999;51.514;14.614;2023-07-31T03:21:49;2.30;;;1.90;;
15878;SDS011;61999;51.514;14.614;2023-07-31T03:24:17;2.87;;;1.60;;
15878;SDS011;61999;51.514;14.614;2023-07-31T03:26:46;3.00;;;1.90;;
15878;SDS011;61999;51.514;14.614;2023-07-31T03:29:14;2.27;;;2.00;;
15878;SDS011;61999;51.514;14.614;2023-07-31T03:31:42;3.97;;;2.00;;
15878;SDS011;61999;51.514;14.614;2023-07-31T03:34:11;6.13;;;2.00;;
15878;SDS011;61999;51.514;14.614;2023-07-31T03:36:39;2.47;;;1.80;;
15878;SDS011;61999;51.514;14.614;2023-07-31T03:39:07;5.10;;;1.80;;
15878;SDS011;61999;51.514;14.614;2023-07-31T03:41:35;2.93;;;1.60;;
15878;SDS011;61999;51.514;14.614;2023-07-31T03:44:04;3.77;;;2.10;;
15878;SDS011;61999;51.514;14.614;2023-07-31T03:46:32;4.33;;;1.87;;
15878;SDS011;61999;51.514;14.614;2023-07-31T03:49:02;2.60;;;1.70;;
15878;SDS011;61999;51.514;14.614;2023-07-31T03:51:30;3.63;;;1.80;;
15878;SDS011;61999;51.514;14.614;2023-07-31T03:53:58;2.50;;;1.67;;
15878;SDS011;61999;51.514;14.614;2023-07-31T03:56:26;2.90;;;1.53;;
15878;SDS011;61999;51.514;14.614;2023-07-31T03:58:54;3.53;;;1.50;;
15878;SDS011;61999;51.514;14.614;2023-07-31T04:01:24;2.67;;;1.33;;
15878;SDS011;61999;51.514;14.614;2023-07-31T04:03:52;2.17;;;1.80;;
15878;SDS011;61999;51.514;14.614;2023-07-31T04:06:20;4.77;;;1.90;;
15878;SDS011;61999;51.514;14.614;2023-07-31T04:08:48;5.30;;;1.63;;
15878;SDS011;61999;51.514;14.614;2023-07-31T04:11:16;3.97;;;1.60;;
15878;SDS011;61999;51.514;14.614;2023-07-31T04:13:44;2.63;;;1.53;;
15878;SDS011;61999;51.514;14.614;2023-07-31T04:16:12;4.20;;;1.60;;
15878;SDS011;61999;51.514;14.614;2023-07-31T04:18:41;2.63;;;1.60;;
15878;SDS011;61999;51.514;14.614;2023-07-31T04:21:09;3.10;;;1.73;;
15878;SDS011;61999;51.514;14.614;2023-07-31T04:23:37;4.70;;;1.87;;
15878;SDS011;61999;51.514;14.614;2023-07-31T04:26:05;4.43;;;1.90;;
15878;SDS011;61999;51.514;14.614;2023-07-31T04:28:33;4.47;;;2.20;;
15878;SDS011;61999;51.514;14.614;2023-07-31T04:31:01;2.57;;;1.70;;
15878;SDS011;61999;51.514;14.614;2023-07-31T04:33:30;2.00;;;1.80;;
15878;SDS011;61999;51.514;14.614;2023-07-31T04:36:00;1.93;;;1.40;;
15878;SDS011;61999;51.514;14.614;2023-07-31T04:38:28;2.77;;;1.67;;
15878;SDS011;61999;51.514;14.614;2023-07-31T04:40:56;2.77;;;1.40;;
15878;SDS011;61999;51.514;14.614;2023-07-31T04:43:24;1.67;;;1.30;;
15878;SDS011;61999;51.514;14.614;2023-07-31T04:45:52;3.40;;;1.50;;
15878;SDS011;61999;51.514;14.614;2023-07-31T04:48:20;3.10;;;1.73;;
15878;SDS011;61999;51.514;14.614;2023-07-31T04:50:48;3.03;;;1.73;;
15878;SDS011;61999;51.514;14.614;2023-07-31T04:53:17;4.60;;;1.47;;
15878;SDS011;61999;51.514;14.614;2023-07-31T04:55:46;1.50;;;1.40;;
15878;SDS011;61999;51.514;14.614;2023-07-31T04:58:14;4.87;;;1.87;;
15878;SDS011;61999;51.514;14.614;2023-07-31T05:00:42;1.80;;;1.27;;
15878;SDS011;61999;51.514;14.614;2023-07-31T05:03:09;2.30;;;1.80;;
15878;SDS011;61999;51.514;14.614;2023-07-31T05:05:38;4.10;;;1.60;;
15878;SDS011;61999;51.514;14.614;2023-07-31T05:08:05;5.07;;;1.73;;
15878;SDS011;61999;51.514;14.614;2023-07-31T05:10:35;2.93;;;1.40;;
15878;SDS011;61999;51.514;14.614;2023-07-31T05:13:03;3.13;;;2.10;;
15878;SDS011;61999;51.514;14.614;2023-07-31T05:15:31;1.83;;;1.60;;
15878;SDS011;61999;51.514;14.614;2023-07-31T05:17:59;3.17;;;1.60;;
15878;SDS011;61999;51.514;14.614;2023-07-31T05:20:27;2.50;;;1.80;;
15878;SDS011;61999;51.514;14.614;2023-07-31T05:22:55;3.50;;;2.00;;
15878;SDS011;61999;51.514;14.614;2023-07-31T05:25:23;2.90;;;2.00;;
15878;SDS011;61999;51.514;14.614;2023-07-31T05:27:52;2.13;;;1.90;;
15878;SDS011;61999;51.514;14.614;2023-07-31T05:30:20;3.37;;;1.80;;
15878;SDS011;61999;51.514;14.614;2023-07-31T05:32:48;2.27;;;1.50;;
15878;SDS011;61999;51.514;14.614;2023-07-31T05:35:16;3.00;;;1.80;;
15878;SDS011;61999;51.514;14.614;2023-07-31T05:37:44;2.27;;;1.70;;
15878;SDS011;61999;51.514;14.614;2023-07-31T05:40:12;4.33;;;1.77;;
15878;SDS011;61999;51.514;14.614;2023-07-31T05:42:40;2.50;;;1.93;;
15878;SDS011;61999;51.514;14.614;2023-07-31T05:45:10;2.50;;;1.90;;
15878;SDS011;61999;51.514;14.614;2023-07-31T05:47:39;2.63;;;1.50;;
15878;SDS011;61999;51.514;14.614;2023-07-31T05:50:08;3.40;;;1.90;;
15878;SDS011;61999;51.514;14.614;2023-07-31T05:52:36;3.97;;;1.97;;
15878;SDS011;61999;51.514;14.614;2023-07-31T05:55:04;5.33;;;2.10;;
15878;SDS011;61999;51.514;14.614;2023-07-31T05:57:37;3.30;;;2.00;;
15878;SDS011;61999;51.514;14.614;2023-07-31T06:00:05;3.27;;;1.77;;
15878;SDS011;61999;51.514;14.614;2023-07-31T06:02:36;2.63;;;1.60;;
15878;SDS011;61999;51.514;14.614;2023-07-31T06:05:05;3.17;;;1.60;;
15878;SDS011;61999;51.514;14.614;2023-07-31T06:07:34;2.83;;;2.07;;
15878;SDS011;61999;51.514;14.614;2023-07-31T06:10:02;3.33;;;1.70;;
15878;SDS011;61999;51.514;14.614;2023-07-31T06:12:32;3.97;;;1.60;;
15878;SDS011;61999;51.514;14.614;2023-07-31T06:15:01;2.60;;;1.93;;
15878;SDS011;61999;51.514;14.614;2023-07-31T06:17:30;2.87;;;2.23;;
15878;SDS011;61999;51.514;14.614;2023-07-31T06:20:00;1.73;;;1.63;;
15878;SDS011;61999;51.514;14.614;2023-07-31T06:22:31;3.13;;;1.43;;
15878;SDS011;61999;51.514;14.614;2023-07-31T06:24:59;3.60;;;1.90;;
15878;SDS011;61999;51.514;14.614;2023-07-31T06:27:28;2.97;;;1.80;;
15878;SDS011;61999;51.514;14.614;2023-07-31T06:29:56;2.80;;;1.70;;
15878;SDS011;61999;51.514;14.614;2023-07-31T06:32:24;4.87;;;1.90;;
15878;SDS011;61999;51.514;14.614;2023-07-31T06:34:52;3.80;;;2.20;;
15878;SDS011;61999;51.514;14.614;2023-07-31T06:37:22;3.10;;;1.80;;
15878;SDS011;61999;51.514;14.614;2023-07-31T06:39:50;1.97;;;1.70;;
15878;SDS011;61999;51.514;14.614;2023-07-31T06:42:18;3.60;;;2.20;;
15878;SDS011;61999;51.514;14.614;2023-07-31T06:44:46;2.63;;;1.90;;
15878;SDS011;61999;51.514;14.614;2023-07-31T06:47:14;2.30;;;1.80;;
15878;SDS011;61999;51.514;14.614;2023-07-31T06:49:42;2.27;;;1.80;;
15878;SDS011;61999;51.514;14.614;2023-07-31T06:52:09;3.00;;;2.00;;
15878;SDS011;61999;51.514;14.614;2023-07-31T06:54:39;2.67;;;1.97;;
15878;SDS011;61999;51.514;14.614;2023-07-31T06:57:07;2.37;;;1.80;;
15878;SDS011;61999;51.514;14.614;2023-07-31T06:59:35;3.17;;;1.90;;
15878;SDS011;61999;51.514;14.614;2023-07-31T07:02:03;3.13;;;1.77;;
15878;SDS011;61999;51.514;14.614;2023-07-31T07:04:32;2.40;;;2.03;;
15878;SDS011;61999;51.514;14.614;2023-07-31T07:07:00;2.90;;;1.87;;
15878;SDS011;61999;51.514;14.614;2023-07-31T07:09:28;2.13;;;1.93;;
15878;SDS011;61999;51.514;14.614;2023-07-31T07:11:57;3.27;;;1.97;;
15878;SDS011;61999;51.514;14.614;2023-07-31T07:14:25;6.47;;;2.10;;
15878;SDS011;61999;51.514;14.614;2023-07-31T07:16:53;4.40;;;2.00;;
15878;SDS011;61999;51.514;14.614;2023-07-31T07:19:21;3.07;;;2.17;;
15878;SDS011;61999;51.514;14.614;2023-07-31T07:21:49;2.70;;;2.00;;
15878;SDS011;61999;51.514;14.614;2023-07-31T07:24:17;3.17;;;2.10;;
15878;SDS011;61999;51.514;14.614;2023-07-31T07:26:46;4.73;;;2.27;;
15878;SDS011;61999;51.514;14.614;2023-07-31T07:29:15;3.60;;;2.13;;
15878;SDS011;61999;51.514;14.614;2023-07-31T07:31:43;2.50;;;1.97;;
15878;SDS011;61999;51.514;14.614;2023-07-31T07:34:11;6.10;;;2.27;;
15878;SDS011;61999;51.514;14.614;2023-07-31T07:36:39;2.23;;;2.03;;
15878;SDS011;61999;51.514;14.614;2023-07-31T07:39:08;4.47;;;2.30;;
15878;SDS011;61999;51.514;14.614;2023-07-31T07:41:37;3.50;;;2.40;;
15878;SDS011;61999;51.514;14.614;2023-07-31T07:44:05;3.70;;;2.60;;
15878;SDS011;61999;51.514;14.614;2023-07-31T07:46:36;4.00;;;2.20;;
15878;SDS011;61999;51.514;14.614;2023-07-31T07:49:05;4.37;;;2.40;;
15878;SDS011;61999;51.514;14.614;2023-07-31T07:51:33;3.47;;;2.53;;
15878;SDS011;61999;51.514;14.614;2023-07-31T07:54:01;4.83;;;2.50;;
15878;SDS011;61999;51.514;14.614;2023-07-31T07:56:29;3.17;;;2.40;;
15878;SDS011;61999;51.514;14.614;2023-07-31T07:58:57;2.37;;;2.10;;
15878;SDS011;61999;51.514;14.614;2023-07-31T08:01:25;2.40;;;2.07;;
15878;SDS011;61999;51.514;14.614;2023-07-31T08:03:54;3.20;;;2.53;;
15878;SDS011;61999;51.514;14.614;2023-07-31T08:06:23;2.67;;;2.10;;
15878;SDS011;61999;51.514;14.614;2023-07-31T08:08:51;5.77;;;2.77;;
15878;SDS011;61999;51.514;14.614;2023-07-31T08:11:19;3.13;;;2.13;;
15878;SDS011;61999;51.514;14.614;2023-07-31T08:13:48;3.93;;;2.20;;
15878;SDS011;61999;51.514;14.614;2023-07-31T08:16:16;3.27;;;2.37;;
15878;SDS011;61999;51.514;14.614;2023-07-31T08:18:44;3.60;;;2.47;;
15878;SDS011;61999;51.514;14.614;2023-07-31T08:21:13;3.37;;;2.20;;
15878;SDS011;61999;51.514;14.614;2023-07-31T08:23:42;5.93;;;2.40;;
15878;SDS011;61999;51.514;14.614;2023-07-31T08:26:13;3.60;;;1.87;;
15878;SDS011;61999;51.514;14.614;2023-07-31T08:28:42;4.10;;;2.20;;
15878;SDS011;61999;51.514;14.614;2023-07-31T08:31:10;2.57;;;2.30;;
15878;SDS011;61999;51.514;14.614;2023-07-31T08:33:38;2.97;;;2.60;;
15878;SDS011;61999;51.514;14.614;2023-07-31T08:36:07;2.67;;;2.10;;
15878;SDS011;61999;51.514;14.614;2023-07-31T08:38:36;2.50;;;2.30;;
15878;SDS011;61999;51.514;14.614;2023-07-31T08:41:04;4.00;;;2.33;;
15878;SDS011;61999;51.514;14.614;2023-07-31T08:43:33;4.73;;;2.57;;
15878;SDS011;61999;51.514;14.614;2023-07-31T08:46:03;2.87;;;2.30;;
15878;SDS011;61999;51.514;14.614;2023-07-31T08:48:34;2.77;;;2.53;;
15878;SDS011;61999;51.514;14.614;2023-07-31T08:51:05;3.43;;;2.10;;
15878;SDS011;61999;51.514;14.614;2023-07-31T08:53:33;3.97;;;2.33;;
15878;SDS011;61999;51.514;14.614;2023-07-31T08:56:03;4.03;;;2.97;;
15878;SDS011;61999;51.514;14.614;2023-07-31T08:58:33;3.10;;;2.10;;
15878;SDS011;61999;51.514;14.614;2023-07-31T09:01:04;5.53;;;2.50;;
15878;SDS011;61999;51.514;14.614;2023-07-31T09:03:34;2.80;;;2.37;;
15878;SDS011;61999;51.514;14.614;2023-07-31T09:06:04;3.40;;;2.33;;
15878;SDS011;61999;51.514;14.614;2023-07-31T09:08:33;2.97;;;1.90;;
15878;SDS011;61999;51.514;14.614;2023-07-31T09:11:02;3.23;;;2.07;;
15878;SDS011;61999;51.514;14.614;2023-07-31T09:13:31;4.43;;;2.27;;
15878;SDS011;61999;51.514;14.614;2023-07-31T09:15:59;2.97;;;2.30;;
15878;SDS011;61999;51.514;14.614;2023-07-31T09:18:28;3.03;;;2.07;;
15878;SDS011;61999;51.514;14.614;2023-07-31T09:21:02;3.03;;;2.23;;
15878;SDS011;61999;51.514;14.614;2023-07-31T09:23:41;3.20;;;2.20;;
15878;SDS011;61999;51.514;14.614;2023-07-31T09:26:11;4.30;;;2.67;;
15878;SDS011;61999;51.514;14.614;2023-07-31T09:28:57;2.83;;;1.90;;
15878;SDS011;61999;51.514;14.614;2023-07-31T09:31:32;2.90;;;2.20;;
15878;SDS011;61999;51.514;14.614;2023-07-31T09:34:06;4.10;;;2.47;;
15878;SDS011;61999;51.514;14.614;2023-07-31T09:36:39;3.57;;;2.17;;
15878;SDS011;61999;51.514;14.614;2023-07-31T09:39:09;4.37;;;2.40;;
15878;SDS011;61999;51.514;14.614;2023-07-31T09:41:41;2.80;;;2.03;;
15878;SDS011;61999;51.514;14.614;2023-07-31T09:44:11;4.13;;;2.27;;
15878;SDS011;61999;51.514;14.614;2023-07-31T09:46:39;3.57;;;2.30;;
15878;SDS011;61999;51.514;14.614;2023-07-31T09:49:07;3.40;;;2.20;;
15878;SDS011;61999;51.514;14.614;2023-07-31T09:51:37;2.33;;;2.07;;
15878;SDS011;61999;51.514;14.614;2023-07-31T09:54:09;3.90;;;2.23;;
15878;SDS011;61999;51.514;14.614;2023-07-31T09:56:43;4.30;;;2.00;;
15878;SDS011;61999;51.514;14.614;2023-07-31T09:59:14;3.90;;;2.50;;
15878;SDS011;61999;51.514;14.614;2023-07-31T10:01:46;2.97;;;2.00;;
15878;SDS011;61999;51.514;14.614;2023-07-31T10:04:16;5.20;;;2.37;;
15878;SDS011;61999;51.514;14.614;2023-07-31T10:06:52;5.03;;;2.40;;
15878;SDS011;61999;51.514;14.614;2023-07-31T10:09:22;1.97;;;1.73;;
15878;SDS011;61999;51.514;14.614;2023-07-31T10:11:59;2.63;;;2.03;;
15878;SDS011;61999;51.514;14.614;2023-07-31T10:14:32;3.70;;;1.93;;
15878;SDS011;61999;51.514;14.614;2023-07-31T10:17:01;2.83;;;2.03;;
15878;SDS011;61999;51.514;14.614;2023-07-31T10:22:25;2.87;;;1.93;;
15878;SDS011;61999;51.514;14.614;2023-07-31T10:24:55;3.90;;;2.33;;
15878;SDS011;61999;51.514;14.614;2023-07-31T10:27:28;3.33;;;2.03;;
15878;SDS011;61999;51.514;14.614;2023-07-31T10:29:56;3.07;;;1.53;;
15878;SDS011;61999;51.514;14.614;2023-07-31T10:32:26;3.43;;;2.20;;
15878;SDS011;61999;51.514;14.614;2023-07-31T10:34:55;3.40;;;2.23;;
15878;SDS011;61999;51.514;14.614;2023-07-31T10:37:25;2.47;;;1.83;;
15878;SDS011;61999;51.514;14.614;2023-07-31T10:39:56;4.27;;;2.30;;
15878;SDS011;61999;51.514;14.614;2023-07-31T10:42:28;4.50;;;2.13;;
15878;SDS011;61999;51.514;14.614;2023-07-31T10:44:59;3.53;;;2.10;;
15878;SDS011;61999;51.514;14.614;2023-07-31T10:47:29;2.47;;;1.93;;
15878;SDS011;61999;51.514;14.614;2023-07-31T10:52:46;3.43;;;1.93;;
15878;SDS011;61999;51.514;14.614;2023-07-31T10:55:23;3.40;;;2.30;;
15878;SDS011;61999;51.514;14.614;2023-07-31T10:58:06;2.20;;;2.00;;
15878;SDS011;61999;51.514;14.614;2023-07-31T11:00:37;4.50;;;2.23;;
15878;SDS011;61999;51.514;14.614;2023-07-31T11:03:07;3.27;;;2.40;;
15878;SDS011;61999;51.514;14.614;2023-07-31T11:05:50;3.17;;;2.00;;
15878;SDS011;61999;51.514;14.614;2023-07-31T11:08:22;2.47;;;2.00;;
15878;SDS011;61999;51.514;14.614;2023-07-31T11:11:04;3.43;;;2.10;;
15878;SDS011;61999;51.514;14.614;2023-07-31T11:13:40;3.17;;;2.30;;
15878;SDS011;61999;51.514;14.614;2023-07-31T11:16:11;1.97;;;1.70;;
15878;SDS011;61999;51.514;14.614;2023-07-31T11:18:41;2.87;;;2.40;;
15878;SDS011;61999;51.514;14.614;2023-07-31T11:21:11;3.07;;;2.40;;
15878;SDS011;61999;51.514;14.614;2023-07-31T11:23:41;3.80;;;2.10;;
15878;SDS011;61999;51.514;14.614;2023-07-31T11:26:13;3.57;;;2.53;;
15878;SDS011;61999;51.514;14.614;2023-07-31T11:28:46;3.57;;;2.27;;
15878;SDS011;61999;51.514;14.614;2023-07-31T11:31:15;2.30;;;1.63;;
15878;SDS011;61999;51.514;14.614;2023-07-31T11:33:43;2.90;;;2.70;;
15878;SDS011;61999;51.514;14.614;2023-07-31T11:36:14;2.93;;;2.00;;
15878;SDS011;61999;51.514;14.614;2023-07-31T11:38:42;3.00;;;2.13;;
15878;SDS011;61999;51.514;14.614;2023-07-31T11:41:13;2.30;;;1.97;;
15878;SDS011;61999;51.514;14.614;2023-07-31T11:43:44;4.97;;;2.43;;
15878;SDS011;61999;51.514;14.614;2023-07-31T11:46:14;3.83;;;2.17;;
15878;SDS011;61999;51.514;14.614;2023-07-31T11:48:42;2.73;;;1.87;;
15878;SDS011;61999;51.514;14.614;2023-07-31T11:51:12;5.60;;;2.10;;
15878;SDS011;61999;51.514;14.614;2023-07-31T11:53:49;3.20;;;2.10;;
15878;SDS011;61999;51.514;14.614;2023-07-31T11:56:21;2.93;;;2.20;;
15878;SDS011;61999;51.514;14.614;2023-07-31T11:58:53;2.93;;;2.07;;
15878;SDS011;61999;51.514;14.614;2023-07-31T12:01:28;2.27;;;1.97;;
15878;SDS011;61999;51.514;14.614;2023-07-31T12:03:57;5.37;;;2.07;;
15878;SDS011;61999;51.514;14.614;2023-07-31T12:06:32;3.57;;;1.77;;
15878;SDS011;61999;51.514;14.614;2023-07-31T12:09:02;2.50;;;2.30;;
15878;SDS011;61999;51.514;14.614;2023-07-31T12:11:31;5.47;;;2.03;;
15878;SDS011;61999;51.514;14.614;2023-07-31T12:14:19;4.50;;;1.97;;
15878;SDS011;61999;51.514;14.614;2023-07-31T12:16:52;2.90;;;2.40;;
15878;SDS011;61999;51.514;14.614;2023-07-31T12:19:22;2.60;;;2.00;;
15878;SDS011;61999;51.514;14.614;2023-07-31T12:21:50;2.53;;;2.20;;
15878;SDS011;61999;51.514;14.614;2023-07-31T12:24:18;3.57;;;2.10;;
15878;SDS011;61999;51.514;14.614;2023-07-31T12:26:48;2.17;;;1.93;;
15878;SDS011;61999;51.514;14.614;2023-07-31T12:29:16;3.33;;;2.07;;
15878;SDS011;61999;51.514;14.614;2023-07-31T12:31:46;3.47;;;1.93;;
15878;SDS011;61999;51.514;14.614;2023-07-31T12:34:15;3.33;;;2.30;;
15878;SDS011;61999;51.514;14.614;2023-07-31T12:36:44;5.43;;;2.37;;
15878;SDS011;61999;51.514;14.614;2023-07-31T12:39:12;3.03;;;2.00;;
15878;SDS011;61999;51.514;14.614;2023-07-31T12:41:41;2.17;;;1.93;;
15878;SDS011;61999;51.514;14.614;2023-07-31T12:44:08;3.67;;;2.40;;
15878;SDS011;61999;51.514;14.614;2023-07-31T12:46:38;3.87;;;2.00;;
15878;SDS011;61999;51.514;14.614;2023-07-31T12:49:06;3.00;;;2.30;;
15878;SDS011;61999;51.514;14.614;2023-07-31T12:51:34;3.23;;;1.93;;
15878;SDS011;61999;51.514;14.614;2023-07-31T12:54:02;2.23;;;1.80;;
15878;SDS011;61999;51.514;14.614;2023-07-31T12:56:30;2.50;;;2.20;;
15878;SDS011;61999;51.514;14.614;2023-07-31T12:58:58;2.33;;;1.90;;
15878;SDS011;61999;51.514;14.614;2023-07-31T13:01:26;2.63;;;1.90;;
15878;SDS011;61999;51.514;14.614;2023-07-31T13:03:56;3.40;;;2.20;;
15878;SDS011;61999;51.514;14.614;2023-07-31T13:06:24;3.13;;;1.93;;
15878;SDS011;61999;51.514;14.614;2023-07-31T13:08:53;3.17;;;2.00;;
15878;SDS011;61999;51.514;14.614;2023-07-31T13:11:21;3.20;;;2.17;;
15878;SDS011;61999;51.514;14.614;2023-07-31T13:13:49;3.30;;;2.30;;
15878;SDS011;61999;51.514;14.614;2023-07-31T13:16:17;3.47;;;2.10;;
15878;SDS011;61999;51.514;14.614;2023-07-31T13:18:45;2.83;;;2.00;;
15878;SDS011;61999;51.514;14.614;2023-07-31T13:21:14;2.70;;;2.23;;
15878;SDS011;61999;51.514;14.614;2023-07-31T13:23:44;3.90;;;2.50;;
15878;SDS011;61999;51.514;14.614;2023-07-31T13:26:12;2.57;;;1.90;;
15878;SDS011;61999;51.514;14.614;2023-07-31T13:28:41;4.73;;;2.70;;
15878;SDS011;61999;51.514;14.614;2023-07-31T13:31:09;2.03;;;1.77;;
15878;SDS011;61999;51.514;14.614;2023-07-31T13:33:37;2.47;;;2.00;;
15878;SDS011;61999;51.514;14.614;2023-07-31T13:36:06;3.43;;;1.67;;
15878;SDS011;61999;51.514;14.614;2023-07-31T13:38:36;2.23;;;2.03;;
15878;SDS011;61999;51.514;14.614;2023-07-31T13:41:04;2.37;;;2.17;;
15878;SDS011;61999;51.514;14.614;2023-07-31T13:43:32;3.23;;;2.20;;
15878;SDS011;61999;51.514;14.614;2023-07-31T13:46:00;2.43;;;2.20;;
15878;SDS011;61999;51.514;14.614;2023-07-31T13:48:33;6.47;;;1.90;;
15878;SDS011;61999;51.514;14.614;2023-07-31T13:51:02;2.23;;;2.03;;
15878;SDS011;61999;51.514;14.614;2023-07-31T13:53:32;2.27;;;2.00;;
15878;SDS011;61999;51.514;14.614;2023-07-31T13:56:01;3.40;;;2.27;;
15878;SDS011;61999;51.514;14.614;2023-07-31T14:01:30;2.43;;;1.90;;
15878;SDS011;61999;51.514;14.614;2023-07-31T14:04:00;2.50;;;1.70;;
15878;SDS011;61999;51.514;14.614;2023-07-31T14:06:29;2.33;;;1.90;;
15878;SDS011;61999;51.514;14.614;2023-07-31T14:08:57;2.33;;;1.97;;
15878;SDS011;61999;51.514;14.614;2023-07-31T14:11:27;2.07;;;1.67;;
15878;SDS011;61999;51.514;14.614;2023-07-31T14:13:55;3.40;;;1.80;;
15878;SDS011;61999;51.514;14.614;2023-07-31T14:16:23;2.00;;;1.83;;
15878;SDS011;61999;51.514;14.614;2023-07-31T14:18:51;2.03;;;1.80;;
15878;SDS011;61999;51.514;14.614;2023-07-31T14:21:20;2.67;;;1.73;;
15878;SDS011;61999;51.514;14.614;2023-07-31T14:23:47;2.67;;;1.90;;
15878;SDS011;61999;51.514;14.614;2023-07-31T14:26:15;2.20;;;1.90;;
15878;SDS011;61999;51.514;14.614;2023-07-31T14:28:45;2.50;;;2.17;;
15878;SDS011;61999;51.514;14.614;2023-07-31T14:31:13;2.20;;;1.80;;
15878;SDS011;61999;51.514;14.614;2023-07-31T14:33:41;2.30;;;2.10;;
15878;SDS011;61999;51.514;14.614;2023-07-31T14:36:09;2.50;;;2.17;;
15878;SDS011;61999;51.514;14.614;2023-07-31T14:38:38;2.33;;;1.97;;
15878;SDS011;61999;51.514;14.614;2023-07-31T14:41:07;3.73;;;2.47;;
15878;SDS011;61999;51.514;14.614;2023-07-31T14:43:35;2.43;;;2.23;;
15878;SDS011;61999;51.514;14.614;2023-07-31T14:46:04;2.47;;;2.03;;
15878;SDS011;61999;51.514;14.614;2023-07-31T14:48:32;4.60;;;1.97;;
15878;SDS011;61999;51.514;14.614;2023-07-31T14:51:00;3.33;;;2.07;;
15878;SDS011;61999;51.514;14.614;2023-07-31T14:53:28;4.20;;;2.33;;
15878;SDS011;61999;51.514;14.614;2023-07-31T14:55:56;3.63;;;1.87;;